Terminal Aerodrome Forecast
Issued by NWS

Home | Current Version | Previous Version | Text Only | Print | Product List | Glossary On
Versions: 1 2 3 4 5 6 7 8 9 10 11 12 13 14 15 16 17 18 19 20
000
FTUS43 KDVN 202050 AAA
TAFCID
TAF AMD
KCID 202050Z 2021/2118 11010KT 4SM BR OVC004
     FM202200 12010KT 5SM BR OVC009
     FM210000 13009KT 5SM BR VCSH BKN015
     FM210300 22011KT P6SM BKN025
     FM210900 24010KT P6SM OVC015
     FM211500 27016KT P6SM BKN025=

USA.gov is the U.S. government's official web portal to all federal, state and local government web resources and services.